createdAt,value
2022-11-17T00:01:35.395Z,64.80
2022-11-17T00:04:03.673Z,55.90
2022-11-17T00:06:31.940Z,57.70
2022-11-17T00:09:00.163Z,35.20
2022-11-17T00:11:48.447Z,52.10
2022-11-17T00:14:36.714Z,62.50
2022-11-17T00:17:09.139Z,48.00
2022-11-17T00:19:56.811Z,49.50
2022-11-17T00:22:26.020Z,53.30
2022-11-17T00:24:54.232Z,58.90
2022-11-17T00:27:22.477Z,64.60
2022-11-17T00:29:50.728Z,66.90
2022-11-17T00:32:38.389Z,53.50
2022-11-17T00:35:07.269Z,53.60
2022-11-17T00:38:00.437Z,54.50
2022-11-17T00:40:28.845Z,51.70
2022-11-17T00:42:57.062Z,68.50
2022-11-17T00:45:25.261Z,52.00
2022-11-17T00:47:53.455Z,65.20
2022-11-17T00:50:21.654Z,61.00
2022-11-17T00:52:49.895Z,59.90
2022-11-17T00:55:18.163Z,53.40
2022-11-17T00:57:46.374Z,56.20
2022-11-17T01:00:16.123Z,65.70
2022-11-17T01:02:44.328Z,47.10
2022-11-17T01:05:12.609Z,60.60
2022-11-17T01:07:41.002Z,60.60
2022-11-17T01:10:10.299Z,45.40
2022-11-17T01:12:38.551Z,58.40
2022-11-17T01:15:08.358Z,58.50
2022-11-17T01:17:36.588Z,50.40
2022-11-17T01:20:05.672Z,57.90
2022-11-17T01:22:33.889Z,29.10
2022-11-17T01:25:02.112Z,55.50
2022-11-17T01:27:30.393Z,56.00
2022-11-17T01:29:58.619Z,32.40
2022-11-17T01:32:26.889Z,61.50
2022-11-17T01:34:55.068Z,41.90
2022-11-17T01:37:23.287Z,45.70
2022-11-17T01:39:51.527Z,33.80
2022-11-17T01:42:24.293Z,48.10
2022-11-17T01:45:19.410Z,55.70
2022-11-17T01:48:03.211Z,44.40
2022-11-17T01:50:49.405Z,64.30
2022-11-17T01:53:20.524Z,48.60
2022-11-17T01:55:59.891Z,46.40
2022-11-17T01:58:39.638Z,58.80
2022-11-17T02:01:07.889Z,65.40
2022-11-17T02:03:37.275Z,56.00
2022-11-17T02:06:17.181Z,62.30
2022-11-17T02:08:47.102Z,64.80
2022-11-17T02:11:19.332Z,60.10
2022-11-17T02:13:49.085Z,69.10
2022-11-17T02:16:18.077Z,69.20
2022-11-17T02:18:48.665Z,63.90
2022-11-17T02:21:49.487Z,68.30
2022-11-17T02:24:31.505Z,77.60
2022-11-17T02:27:46.985Z,65.30
2022-11-17T02:30:21.940Z,67.70
2022-11-17T02:33:30.256Z,63.20
2022-11-17T02:36:33.361Z,71.20
2022-11-17T02:39:13.250Z,63.90
2022-11-17T02:41:52.937Z,64.70
2022-11-17T02:44:56.509Z,59.10
2022-11-17T02:47:30.277Z,63.80
2022-11-17T02:50:06.657Z,62.40
2022-11-17T02:52:35.096Z,57.20
2022-11-17T02:55:10.536Z,64.60
2022-11-17T02:57:41.140Z,57.80
2022-11-17T03:00:20.094Z,57.70
2022-11-17T03:03:07.124Z,55.00
2022-11-17T03:05:56.929Z,50.40
2022-11-17T03:08:44.419Z,50.30
2022-11-17T03:11:13.858Z,52.20
2022-11-17T03:13:48.212Z,50.60
2022-11-17T03:16:37.909Z,50.70
2022-11-17T03:19:25.996Z,45.60
2022-11-17T03:22:28.208Z,49.20
2022-11-17T03:25:02.817Z,44.50
2022-11-17T03:27:42.894Z,42.80
2022-11-17T03:30:12.754Z,44.00
2022-11-17T03:32:45.467Z,42.50
2022-11-17T03:35:24.977Z,47.70
2022-11-17T03:38:01.555Z,46.10
2022-11-17T03:40:32.908Z,44.40
2022-11-17T03:43:07.039Z,42.20
2022-11-17T03:45:40.303Z,43.60
2022-11-17T03:48:28.987Z,41.30
2022-11-17T03:51:19.149Z,39.70
2022-11-17T03:53:48.107Z,40.00
2022-11-17T03:56:43.360Z,38.50
2022-11-17T03:59:19.154Z,46.00
2022-11-17T04:01:47.491Z,34.40
2022-11-17T04:04:21.601Z,38.50
2022-11-17T04:06:53.321Z,37.70
2022-11-17T04:09:24.598Z,37.70
2022-11-17T04:12:11.784Z,37.50
2022-11-17T04:14:58.535Z,36.00
2022-11-17T04:17:26.843Z,34.20
2022-11-17T04:19:55.190Z,32.20
2022-11-17T04:22:23.469Z,39.50
2022-11-17T04:24:51.794Z,32.10
2022-11-17T04:27:38.595Z,36.10
2022-11-17T04:30:07.532Z,29.80
2022-11-17T04:32:35.799Z,38.40
2022-11-17T04:35:04.528Z,36.00
2022-11-17T04:37:32.921Z,32.90
2022-11-17T04:40:01.224Z,39.10
2022-11-17T04:42:29.537Z,33.80
2022-11-17T04:44:57.946Z,28.70
2022-11-17T04:47:26.208Z,30.20
2022-11-17T04:49:54.523Z,39.70
2022-11-17T04:52:26.933Z,45.70
2022-11-17T04:54:58.054Z,36.10
2022-11-17T04:57:26.304Z,40.70
2022-11-17T04:59:54.701Z,37.20
2022-11-17T05:02:22.989Z,44.50
2022-11-17T05:04:57.093Z,40.20
2022-11-17T05:09:53.787Z,42.70
2022-11-17T05:12:40.654Z,41.60
2022-11-17T05:15:09.403Z,41.10
2022-11-17T05:17:37.611Z,44.60
2022-11-17T05:20:07.004Z,44.80
2022-11-17T05:22:53.959Z,39.90
2022-11-17T05:25:22.315Z,40.90
2022-11-17T05:27:50.649Z,39.60
2022-11-17T05:30:19.091Z,36.30
2022-11-17T05:32:47.340Z,37.10
2022-11-17T05:35:18.288Z,30.90
2022-11-17T05:37:46.749Z,29.00
2022-11-17T05:40:15.672Z,34.20
2022-11-17T05:42:46.170Z,38.00
2022-11-17T05:45:14.514Z,28.80
2022-11-17T05:47:43.164Z,33.30
2022-11-17T05:50:11.506Z,31.40
2022-11-17T05:52:39.932Z,29.30
2022-11-17T05:55:08.190Z,30.60
2022-11-17T05:57:36.698Z,29.70
2022-11-17T06:00:05.941Z,33.10
2022-11-17T06:02:56.877Z,31.80
2022-11-17T06:05:25.995Z,27.70
2022-11-17T06:07:57.834Z,27.00
2022-11-17T06:10:27.355Z,29.80
2022-11-17T06:12:56.282Z,31.50
2022-11-17T06:15:24.634Z,30.20
2022-11-17T06:18:03.961Z,28.50
2022-11-17T06:20:41.338Z,28.80
2022-11-17T06:23:11.846Z,28.50
2022-11-17T06:25:40.257Z,28.30
2022-11-17T06:28:15.217Z,26.30
2022-11-17T06:30:44.061Z,24.30
2022-11-17T06:33:15.751Z,27.50
2022-11-17T06:35:45.913Z,23.60
2022-11-17T06:38:14.302Z,26.80
2022-11-17T06:40:42.683Z,28.50
2022-11-17T06:43:11.106Z,27.40
2022-11-17T06:45:41.725Z,32.10
2022-11-17T06:48:12.813Z,32.30
2022-11-17T06:50:41.592Z,30.60
2022-11-17T06:53:12.400Z,29.00
2022-11-17T06:55:42.010Z,27.20
2022-11-17T06:58:11.828Z,25.20
2022-11-17T07:00:40.402Z,26.50
2022-11-17T07:03:11.052Z,31.80
2022-11-17T07:05:40.437Z,23.90
2022-11-17T07:08:09.629Z,27.40
2022-11-17T07:10:38.628Z,23.50
2022-11-17T07:13:07.228Z,27.70
2022-11-17T07:15:35.787Z,26.90
2022-11-17T07:18:04.390Z,31.40
2022-11-17T07:20:32.903Z,27.90
2022-11-17T07:23:01.419Z,27.20
2022-11-17T07:25:29.928Z,29.00
2022-11-17T07:28:00.425Z,25.20
2022-11-17T07:30:29.423Z,27.40
2022-11-17T07:33:04.059Z,28.90
2022-11-17T07:35:32.464Z,29.60
2022-11-17T07:38:01.661Z,27.70
2022-11-17T07:40:31.675Z,29.60
2022-11-17T07:43:00.477Z,26.20
2022-11-17T07:45:31.804Z,28.80
2022-11-17T07:48:03.263Z,29.90
2022-11-17T07:50:32.742Z,25.20
2022-11-17T07:53:01.939Z,28.60
2022-11-17T07:55:30.312Z,29.30
2022-11-17T07:58:01.221Z,30.30
2022-11-17T08:00:31.860Z,22.00
2022-11-17T08:03:02.246Z,29.30
2022-11-17T08:05:32.380Z,27.70
2022-11-17T08:08:00.760Z,26.00
2022-11-17T08:10:32.516Z,31.20
2022-11-17T08:13:01.752Z,34.20
2022-11-17T08:15:30.972Z,26.20
2022-11-17T08:18:01.316Z,26.10
2022-11-17T08:20:30.263Z,28.00
2022-11-17T08:22:58.802Z,27.20
2022-11-17T08:25:28.062Z,23.60
2022-11-17T08:27:58.333Z,28.90
2022-11-17T08:30:27.022Z,27.80
2022-11-17T08:32:55.415Z,30.00
2022-11-17T08:35:26.090Z,26.80
2022-11-17T08:37:55.278Z,25.70
2022-11-17T08:40:23.639Z,23.70
2022-11-17T08:43:00.312Z,25.00
2022-11-17T08:45:29.194Z,23.90
2022-11-17T08:47:57.907Z,27.30
2022-11-17T08:50:26.925Z,24.90
2022-11-17T08:52:55.323Z,26.00
2022-11-17T08:55:23.884Z,20.30
2022-11-17T08:57:52.270Z,25.90
2022-11-17T09:00:22.009Z,19.50
2022-11-17T09:02:50.376Z,21.50
2022-11-17T09:05:18.724Z,23.60
2022-11-17T09:07:47.138Z,19.60
2022-11-17T09:10:15.585Z,18.90
2022-11-17T09:12:43.973Z,18.70
2022-11-17T09:15:12.526Z,17.20
2022-11-17T09:17:43.116Z,16.80
2022-11-17T09:20:12.386Z,19.90
2022-11-17T09:22:40.730Z,16.60
2022-11-17T09:25:13.335Z,17.40
2022-11-17T09:27:42.076Z,21.90
2022-11-17T09:30:11.308Z,19.80
2022-11-17T09:32:39.699Z,14.60
2022-11-17T09:35:09.468Z,20.00
2022-11-17T09:37:37.817Z,16.00
2022-11-17T09:40:07.571Z,17.40
2022-11-17T09:42:40.746Z,17.10
2022-11-17T09:45:14.813Z,14.90
2022-11-17T09:47:51.536Z,13.00
2022-11-17T09:50:45.292Z,16.30
2022-11-17T09:53:24.381Z,15.70
2022-11-17T09:56:03.639Z,15.70
2022-11-17T09:58:58.914Z,17.30
2022-11-17T10:01:29.212Z,15.20
2022-11-17T10:04:17.058Z,16.70
2022-11-17T10:07:04.245Z,12.90
2022-11-17T10:09:52.272Z,14.70
2022-11-17T10:12:32.511Z,14.20
2022-11-17T10:15:22.276Z,16.40
2022-11-17T10:17:50.982Z,15.50
2022-11-17T10:20:20.161Z,18.30
2022-11-17T10:22:52.354Z,15.80
2022-11-17T10:25:37.876Z,18.90
2022-11-17T10:28:09.342Z,13.50
2022-11-17T10:30:37.693Z,15.40
2022-11-17T10:33:06.392Z,17.10
2022-11-17T10:35:36.268Z,15.90
2022-11-17T10:38:08.391Z,11.90
2022-11-17T10:40:39.457Z,14.50
2022-11-17T10:43:14.003Z,12.70
2022-11-17T10:45:47.984Z,14.40
2022-11-17T10:48:19.539Z,13.00
2022-11-17T10:51:00.111Z,14.50
2022-11-17T10:53:46.674Z,13.90
2022-11-17T10:56:25.086Z,16.00
2022-11-17T10:59:02.311Z,19.50
2022-11-17T11:01:46.495Z,16.30
2022-11-17T11:04:42.109Z,14.90
2022-11-17T11:07:24.311Z,16.90
2022-11-17T11:10:07.687Z,16.30
2022-11-17T11:12:52.561Z,16.10
2022-11-17T11:15:24.725Z,15.20
2022-11-17T11:17:53.098Z,14.90
2022-11-17T11:20:41.916Z,15.00
2022-11-17T11:23:19.847Z,16.50
2022-11-17T11:26:01.819Z,15.00
2022-11-17T11:28:55.070Z,15.50
2022-11-17T11:31:39.375Z,17.30
2022-11-17T11:36:59.471Z,15.50
2022-11-17T11:39:55.380Z,17.00
2022-11-17T11:42:35.619Z,13.00
2022-11-17T11:45:33.917Z,12.60
2022-11-17T11:48:34.020Z,15.70
2022-11-17T11:51:13.747Z,13.60
2022-11-17T11:54:00.053Z,14.90
2022-11-17T11:56:46.297Z,16.70
2022-11-17T11:59:50.313Z,15.40
2022-11-17T12:02:27.774Z,17.60
2022-11-17T12:05:05.167Z,13.70
2022-11-17T12:08:17.816Z,13.60
2022-11-17T12:11:25.716Z,12.70
2022-11-17T12:13:54.713Z,11.90
2022-11-17T12:16:41.067Z,12.00
2022-11-17T12:19:53.565Z,12.10
2022-11-17T12:22:33.826Z,7.90
2022-11-17T12:25:29.250Z,8.10
2022-11-17T12:27:57.946Z,6.10
2022-11-17T12:30:37.731Z,9.30
2022-11-17T12:33:08.697Z,6.80
2022-11-17T12:35:39.721Z,6.10
2022-11-17T12:38:17.118Z,6.80
2022-11-17T12:40:54.083Z,8.20
2022-11-17T12:43:27.847Z,5.30
2022-11-17T12:45:56.157Z,7.20
2022-11-17T12:48:35.092Z,5.90
2022-11-17T12:51:10.835Z,5.00
2022-11-17T12:53:59.060Z,4.40
2022-11-17T12:57:00.377Z,7.20
2022-11-17T12:59:42.062Z,4.40
2022-11-17T13:02:31.476Z,5.30
2022-11-17T13:05:08.586Z,5.50
2022-11-17T13:07:37.119Z,4.20
2022-11-17T13:10:06.037Z,4.70
2022-11-17T13:12:34.461Z,6.10
2022-11-17T13:15:05.688Z,5.00
2022-11-17T13:17:43.805Z,3.70
2022-11-17T13:20:30.157Z,5.30
2022-11-17T13:23:09.614Z,6.10
2022-11-17T13:25:37.900Z,5.80
2022-11-17T13:28:06.365Z,5.30
2022-11-17T13:30:34.862Z,3.10
2022-11-17T13:33:04.127Z,5.00
2022-11-17T13:35:35.979Z,4.50
2022-11-17T13:38:07.080Z,3.50
2022-11-17T13:40:37.222Z,4.30
2022-11-17T13:43:07.619Z,5.00
2022-11-17T13:45:36.064Z,5.90
2022-11-17T13:48:04.450Z,5.80
2022-11-17T13:50:37.458Z,5.70
2022-11-17T13:53:09.378Z,4.40
2022-11-17T13:55:45.121Z,5.30
2022-11-17T13:58:40.912Z,5.50
2022-11-17T14:01:13.804Z,5.60
2022-11-17T14:03:46.620Z,4.50
2022-11-17T14:06:15.100Z,5.90
2022-11-17T14:09:02.508Z,5.70
2022-11-17T14:11:31.177Z,5.10
2022-11-17T14:14:01.372Z,7.00
2022-11-17T14:16:41.927Z,5.10
2022-11-17T14:19:16.454Z,7.00
2022-11-17T14:22:09.601Z,5.10
2022-11-17T14:24:38.167Z,6.20
2022-11-17T14:27:34.835Z,5.20
2022-11-17T14:30:05.656Z,5.80
2022-11-17T14:32:35.084Z,5.70
2022-11-17T14:35:03.700Z,5.20
2022-11-17T14:37:32.714Z,6.80
2022-11-17T14:40:03.965Z,8.50
2022-11-17T14:42:35.933Z,5.40
2022-11-17T14:45:05.280Z,4.90
2022-11-17T14:47:33.656Z,4.90
2022-11-17T14:50:02.141Z,5.20
2022-11-17T14:52:30.517Z,4.00
2022-11-17T14:54:59.258Z,4.60
2022-11-17T14:57:27.581Z,4.40
2022-11-17T14:59:55.891Z,3.50
2022-11-17T15:02:24.321Z,3.60
2022-11-17T15:04:53.263Z,3.90
2022-11-17T15:07:22.088Z,6.60
2022-11-17T15:09:50.422Z,5.00
2022-11-17T15:12:18.817Z,5.90
2022-11-17T15:14:48.100Z,7.40
2022-11-17T15:17:17.037Z,6.60
2022-11-17T15:19:45.731Z,4.10
2022-11-17T15:22:14.165Z,5.60
2022-11-17T15:24:42.582Z,4.10
2022-11-17T15:27:12.467Z,5.30
2022-11-17T15:29:40.764Z,5.60
2022-11-17T15:32:09.135Z,4.10
2022-11-17T15:34:37.428Z,4.80
2022-11-17T15:37:05.889Z,6.40
2022-11-17T15:39:34.234Z,4.50
2022-11-17T15:42:02.553Z,5.40
2022-11-17T15:44:30.854Z,3.80
2022-11-17T15:46:59.150Z,3.60
2022-11-17T15:49:27.454Z,2.90
2022-11-17T15:51:55.783Z,2.90
2022-11-17T15:54:24.151Z,3.10
2022-11-17T15:56:52.629Z,4.60
2022-11-17T15:59:21.190Z,4.40
2022-11-17T16:01:49.762Z,3.60
2022-11-17T16:04:18.198Z,2.70
2022-11-17T16:06:47.049Z,3.00
2022-11-17T16:09:16.279Z,3.00
2022-11-17T16:11:44.868Z,2.10
2022-11-17T16:14:15.025Z,2.40
2022-11-17T16:16:46.129Z,3.30
2022-11-17T16:19:14.931Z,3.30
2022-11-17T16:21:44.677Z,3.60
2022-11-17T16:24:13.355Z,3.50
2022-11-17T16:26:41.760Z,3.80
2022-11-17T16:29:10.518Z,3.60
2022-11-17T16:31:39.926Z,3.80
2022-11-17T16:34:13.798Z,2.60
2022-11-17T16:36:44.012Z,4.60
2022-11-17T16:39:17.203Z,3.70
2022-11-17T16:41:46.101Z,3.10
2022-11-17T16:44:17.107Z,4.10
2022-11-17T16:46:48.550Z,3.20
2022-11-17T16:49:19.636Z,2.90
2022-11-17T16:51:50.998Z,3.30
2022-11-17T16:54:20.342Z,4.10
2022-11-17T16:56:49.010Z,3.50
2022-11-17T16:59:17.848Z,3.80
2022-11-17T17:01:47.683Z,4.00
2022-11-17T17:04:16.412Z,4.60
2022-11-17T17:06:46.080Z,4.20
2022-11-17T17:09:15.445Z,6.00
2022-11-17T17:11:44.073Z,5.40
2022-11-17T17:14:15.029Z,4.20
2022-11-17T17:16:43.852Z,5.50
2022-11-17T17:19:14.534Z,4.80
2022-11-17T17:21:44.165Z,5.70
2022-11-17T17:24:12.824Z,4.90
2022-11-17T17:26:42.985Z,4.50
2022-11-17T17:29:11.903Z,5.00
2022-11-17T17:31:42.649Z,4.30
2022-11-17T17:34:13.632Z,3.70
2022-11-17T17:36:42.343Z,3.90
2022-11-17T17:39:16.069Z,4.60
2022-11-17T17:41:46.163Z,4.00
2022-11-17T17:44:18.054Z,3.50
2022-11-17T17:46:48.546Z,4.20
2022-11-17T17:49:19.380Z,3.50
2022-11-17T17:51:48.134Z,4.30
2022-11-17T17:54:21.585Z,4.60
2022-11-17T17:56:50.370Z,4.10
2022-11-17T17:59:19.466Z,4.20
2022-11-17T18:01:49.450Z,3.30
2022-11-17T18:04:18.131Z,6.50
2022-11-17T18:06:48.399Z,4.80
2022-11-17T18:09:20.510Z,4.70
2022-11-17T18:11:50.995Z,7.30
2022-11-17T18:14:24.766Z,4.50
2022-11-17T18:16:54.012Z,4.60
2022-11-17T18:19:26.873Z,6.90
2022-11-17T18:21:58.393Z,5.60
2022-11-17T18:24:26.930Z,4.20
2022-11-17T18:26:55.648Z,4.30
2022-11-17T18:29:24.929Z,5.10
2022-11-17T18:31:53.450Z,4.60
2022-11-17T18:34:24.629Z,7.20
2022-11-17T18:36:55.868Z,4.80
2022-11-17T18:39:25.078Z,4.60
2022-11-17T18:41:53.555Z,5.80
2022-11-17T18:44:22.080Z,5.10
2022-11-17T18:46:50.478Z,4.10
2022-11-17T18:49:19.427Z,5.70
2022-11-17T18:51:50.532Z,4.70
2022-11-17T18:54:18.999Z,5.10
2022-11-17T18:56:47.535Z,5.30
2022-11-17T18:59:18.729Z,5.70
2022-11-17T19:01:47.616Z,4.60
2022-11-17T19:04:16.202Z,6.80
2022-11-17T19:06:44.756Z,6.60
2022-11-17T19:09:13.808Z,5.40
2022-11-17T19:11:42.626Z,6.00
2022-11-17T19:14:11.010Z,5.30
2022-11-17T19:16:44.435Z,6.00
2022-11-17T19:19:14.574Z,7.40
2022-11-17T19:21:43.634Z,6.80
2022-11-17T19:24:12.392Z,6.20
2022-11-17T19:26:40.824Z,6.10
2022-11-17T19:29:16.734Z,8.70
2022-11-17T19:31:47.640Z,7.60
2022-11-17T19:34:18.736Z,9.90
2022-11-17T19:36:47.423Z,6.90
2022-11-17T19:39:17.170Z,7.50
2022-11-17T19:41:47.747Z,7.30
2022-11-17T19:44:16.399Z,6.90
2022-11-17T19:46:47.979Z,6.70
2022-11-17T19:49:16.674Z,7.00
2022-11-17T19:51:45.516Z,7.80
2022-11-17T19:54:16.249Z,6.60
2022-11-17T19:56:44.921Z,7.70
2022-11-17T19:59:16.349Z,7.30
2022-11-17T20:01:46.289Z,7.70
2022-11-17T20:04:15.155Z,7.10
2022-11-17T20:06:43.656Z,5.80
2022-11-17T20:09:15.164Z,7.20
2022-11-17T20:11:44.148Z,6.10
2022-11-17T20:14:14.580Z,8.10
2022-11-17T20:16:43.453Z,7.40
2022-11-17T20:19:14.224Z,8.40
2022-11-17T20:21:43.085Z,7.50
2022-11-17T20:24:11.779Z,9.50
2022-11-17T20:26:42.729Z,8.10
2022-11-17T20:29:11.298Z,9.10
2022-11-17T20:31:40.021Z,11.10
2022-11-17T20:34:12.902Z,8.00
2022-11-17T20:36:41.422Z,9.00
2022-11-17T20:39:10.150Z,8.40
2022-11-17T20:41:38.747Z,8.60
2022-11-17T20:44:24.055Z,11.40
2022-11-17T20:46:57.797Z,10.00
2022-11-17T20:49:30.050Z,10.10
2022-11-17T20:51:58.774Z,10.00
2022-11-17T20:54:27.365Z,12.70
2022-11-17T20:56:55.981Z,11.00
2022-11-17T20:59:24.817Z,9.10
2022-11-17T21:01:53.671Z,7.70
2022-11-17T21:04:22.258Z,9.20
2022-11-17T21:06:51.049Z,7.60
2022-11-17T21:09:19.881Z,9.00
2022-11-17T21:11:57.431Z,9.30
2022-11-17T21:14:27.707Z,9.10
2022-11-17T21:16:57.872Z,8.70
2022-11-17T21:19:27.604Z,8.90
2022-11-17T21:21:56.511Z,8.70
2022-11-17T21:24:26.345Z,10.10
2022-11-17T21:26:54.793Z,11.00
2022-11-17T21:29:23.419Z,11.50
2022-11-17T21:31:51.964Z,11.20
2022-11-17T21:34:20.576Z,10.10
2022-11-17T21:36:49.233Z,10.70
2022-11-17T21:39:19.804Z,10.20
2022-11-17T21:41:48.541Z,12.60
2022-11-17T21:44:17.396Z,10.20
2022-11-17T21:46:45.865Z,10.80
2022-11-17T21:49:14.758Z,10.40
2022-11-17T21:51:43.650Z,13.30
2022-11-17T21:54:12.172Z,10.50
2022-11-17T21:56:40.965Z,10.30
2022-11-17T21:59:14.233Z,11.10
2022-11-17T22:01:43.870Z,10.00
2022-11-17T22:04:13.326Z,10.70
2022-11-17T22:06:42.071Z,9.70
2022-11-17T22:09:10.597Z,11.30
2022-11-17T22:11:39.298Z,8.80
2022-11-17T22:14:16.281Z,10.00
2022-11-17T22:16:53.969Z,10.30
2022-11-17T22:19:26.962Z,10.30
2022-11-17T22:21:55.614Z,10.70
2022-11-17T22:24:24.257Z,11.30
2022-11-17T22:26:52.629Z,10.10
2022-11-17T22:29:22.558Z,8.80
2022-11-17T22:31:51.435Z,10.60
2022-11-17T22:34:19.870Z,10.30
2022-11-17T22:36:48.267Z,10.50
2022-11-17T22:39:17.060Z,10.10
2022-11-17T22:41:45.649Z,11.40
2022-11-17T22:44:16.017Z,12.40
2022-11-17T22:46:44.472Z,12.90
2022-11-17T22:49:13.502Z,13.50
2022-11-17T22:52:00.664Z,12.30
2022-11-17T22:54:30.472Z,12.10
2022-11-17T22:56:59.265Z,10.80
2022-11-17T22:59:29.053Z,13.90
2022-11-17T23:01:57.652Z,14.60
2022-11-17T23:04:26.268Z,11.60
2022-11-17T23:06:54.929Z,12.80
2022-11-17T23:09:23.458Z,14.10
2022-11-17T23:11:51.904Z,13.80
2022-11-17T23:14:20.428Z,15.50
2022-11-17T23:16:49.003Z,13.50
2022-11-17T23:19:17.915Z,15.50
2022-11-17T23:21:46.817Z,12.60
2022-11-17T23:24:15.345Z,13.10
2022-11-17T23:26:43.895Z,13.80
2022-11-17T23:29:12.387Z,13.20
2022-11-17T23:31:40.878Z,15.30
2022-11-17T23:34:11.004Z,10.90
2022-11-17T23:36:39.805Z,12.10
2022-11-17T23:39:08.414Z,11.20
2022-11-17T23:41:37.289Z,14.40
2022-11-17T23:44:06.471Z,13.40
2022-11-17T23:46:35.277Z,12.90
2022-11-17T23:49:04.131Z,12.00
2022-11-17T23:51:32.822Z,12.10
2022-11-17T23:54:03.075Z,12.60
2022-11-17T23:56:33.849Z,11.60
2022-11-17T23:59:02.454Z,11.40
